Dades meteomassalio
Diari Summary for Gener 27, 2018 Units:  Both    English   Metric
« Previous Day
Next Day »
Diari Semanal Mensual Anual Personalitzat
  Maxima: Minima: Mijana:
Temperatura: TemperatureC °F /  -17.8 °C 3.3 °F /  -15.9 °C 6.6 °F /  -14.1 °C
Rosada: DewpointC °F /  -17.8 °C 0.7 °F /  -17.4 °C 2.6 °F /  -16.3 °C
Humitat: Humidity % 57 % 76 %
Velocitat del vent: WindSpeedKMH mph /  0 km/h - 17.1 mph /  27.5 km/h
Racha vent: WindSpeedGustKMH mph /  0 km/h - -
Vent:- - NW
Pressio: PressurehPa in /  0 hPa 1026.0 in /  34740.4 hPa -
Pluja: 0.0 in /  0 mm    
Historical Graphs
 
 
Tabular Data for Gener 27, 2018
Time Temperature Dew Point Pressure Wind Wind Speed Wind Gust Humidity Rainfall Rate (Hourly) solar Conditions
TemperatureC °F /  -17.8 °C DewpointC °F /  -17.8 °C PressurehPa in /  0 hPa Calm     Humidity % HourlyPrecipMM in /  0 mm SolarRadiationWatts/m^2 W/m2 Conditions
00:02 5.0 °F /  -15 °C 2.8 °F /  -16.2 °C 1026.0 in /  34740.4 hPa NW 37.0 mph /  59.5 km/h 37.0 mph /  59.5 km/h 86 % 0.0 in /  0 mm 0.0 W/m2 RA
00:07 5.0 °F /  -15 °C 2.8 °F /  -16.2 °C 1026.3 in /  34750.5 hPa NNW 31.5 mph /  50.7 km/h 31.5 mph /  50.7 km/h 86 % 0.0 in /  0 mm 0.0 W/m2 CLR
00:12 5.0 °F /  -15 °C 2.8 °F /  -16.2 °C 1026.3 in /  34750.5 hPa NNW 31.5 mph /  50.7 km/h 31.5 mph /  50.7 km/h 86 % 0.0 in /  0 mm 0.0 W/m2 CLR
00:17 5.0 °F /  -15 °C 2.8 °F /  -16.2 °C 1026.3 in /  34750.5 hPa NNW 32.2 mph /  51.8 km/h 32.2 mph /  51.8 km/h 86 % 0.0 in /  0 mm 0.0 W/m2 CLR
00:22 5.0 °F /  -15 °C 2.8 °F /  -16.2 °C 1026.3 in /  34750.5 hPa NW 24.1 mph /  38.8 km/h 24.1 mph /  38.8 km/h 86 % 0.0 in /  0 mm 0.0 W/m2 CLR
00:27 5.0 °F /  -15 °C 2.8 °F /  -16.2 °C 1026.3 in /  34750.5 hPa NW 42.6 mph /  68.6 km/h 42.6 mph /  68.6 km/h 86 % 0.0 in /  0 mm 0.0 W/m2 CLR
00:32 5.0 °F /  -15 °C 2.8 °F /  -16.2 °C 1026.3 in /  34750.5 hPa North 40.7 mph /  65.5 km/h 40.7 mph /  65.5 km/h 86 % 0.0 in /  0 mm 0.0 W/m2 CLR
00:37 5.0 °F /  -15 °C 2.8 °F /  -16.2 °C 1026.3 in /  34750.5 hPa NW 33.3 mph /  53.6 km/h 33.3 mph /  53.6 km/h 86 % 0.0 in /  0 mm 0.0 W/m2 CLR
00:42 5.0 °F /  -15 °C 2.8 °F /  -16.2 °C 1026.3 in /  34750.5 hPa NW 31.5 mph /  50.7 km/h 31.5 mph /  50.7 km/h 86 % 0.0 in /  0 mm 0.0 W/m2 CLR
00:47 5.0 °F /  -15 °C 2.7 °F /  -16.3 °C 1026.3 in /  34750.5 hPa NW 38.6 mph /  62.1 km/h 38.6 mph /  62.1 km/h 85 % 0.0 in /  0 mm 0.0 W/m2 CLR
00:52 5.0 °F /  -15 °C 2.7 °F /  -16.3 °C 1026.3 in /  34750.5 hPa NNW 31.5 mph /  50.7 km/h 31.5 mph /  50.7 km/h 85 % 0.0 in /  0 mm 0.0 W/m2 CLR
00:57 5.0 °F /  -15 °C 2.7 °F /  -16.3 °C 1026.3 in /  34750.5 hPa NW 38.6 mph /  62.1 km/h 38.6 mph /  62.1 km/h 85 % 0.0 in /  0 mm 0.0 W/m2 CLR
01:02 5.0 °F /  -15 °C 2.7 °F /  -16.3 °C 1026.3 in /  34750.5 hPa NW 24.1 mph /  38.8 km/h 24.1 mph /  38.8 km/h 85 % 0.0 in /  0 mm 0.0 W/m2 CLR
01:07 5.0 °F /  -15 °C 2.7 °F /  -16.3 °C 1026.3 in /  34750.5 hPa NW 31.5 mph /  50.7 km/h 31.5 mph /  50.7 km/h 85 % 0.0 in /  0 mm 0.0 W/m2 CLR
01:12 5.0 °F /  -15 °C 2.7 °F /  -16.3 °C 1026.3 in /  34750.5 hPa NW 31.5 mph /  50.7 km/h 31.5 mph /  50.7 km/h 85 % 0.0 in /  0 mm 0.0 W/m2 CLR
01:17 5.0 °F /  -15 °C 2.7 °F /  -16.3 °C 1026.3 in /  34750.5 hPa NW 29.6 mph /  47.6 km/h 29.6 mph /  47.6 km/h 85 % 0.0 in /  0 mm 0.0 W/m2 CLR
01:22 5.0 °F /  -15 °C 2.7 °F /  -16.3 °C 1026.3 in /  34750.5 hPa NNW 35.4 mph /  57 km/h 35.4 mph /  57 km/h 85 % 0.0 in /  0 mm 0.0 W/m2 CLR
01:27 4.4 °F /  -15.3 °C 2.2 °F /  -16.6 °C 1026.3 in /  34750.5 hPa NNW 31.5 mph /  50.7 km/h 31.5 mph /  50.7 km/h 85 % 0.0 in /  0 mm 0.0 W/m2 CLR
01:32 4.4 °F /  -15.3 °C 2.2 °F /  -16.6 °C 1026.3 in /  34750.5 hPa NW 30.6 mph /  49.2 km/h 30.6 mph /  49.2 km/h 85 % 0.0 in /  0 mm 0.0 W/m2 CLR
01:37 5.0 °F /  -15 °C 2.7 °F /  -16.3 °C 1026.6 in /  34760.7 hPa NW 40.7 mph /  65.5 km/h 40.7 mph /  65.5 km/h 85 % 0.0 in /  0 mm 0.0 W/m2 CLR
01:42 5.0 °F /  -15 °C 2.7 °F /  -16.3 °C 1026.3 in /  34750.5 hPa NNW 37.0 mph /  59.5 km/h 37.0 mph /  59.5 km/h 85 % 0.0 in /  0 mm 0.0 W/m2 CLR
01:47 4.4 °F /  -15.3 °C 2.0 °F /  -16.7 °C 1026.6 in /  34760.7 hPa NW 31.5 mph /  50.7 km/h 31.5 mph /  50.7 km/h 84 % 0.0 in /  0 mm 0.0 W/m2 CLR
01:52 4.4 °F /  -15.3 °C 2.2 °F /  -16.6 °C 1026.6 in /  34760.7 hPa NW 35.2 mph /  56.6 km/h 35.2 mph /  56.6 km/h 85 % 0.0 in /  0 mm 0.0 W/m2 CLR
01:57 4.4 °F /  -15.3 °C 2.0 °F /  -16.7 °C 1026.6 in /  34760.7 hPa NW 29.6 mph /  47.6 km/h 29.6 mph /  47.6 km/h 84 % 0.0 in /  0 mm 0.0 W/m2 CLR
02:02 4.4 °F /  -15.3 °C 2.2 °F /  -16.6 °C 1026.6 in /  34760.7 hPa WNW 31.5 mph /  50.7 km/h 31.5 mph /  50.7 km/h 85 % 0.0 in /  0 mm 0.0 W/m2 CLR
02:07 4.4 °F /  -15.3 °C 2.2 °F /  -16.6 °C 1026.6 in /  34760.7 hPa NW 29.6 mph /  47.6 km/h 29.6 mph /  47.6 km/h 85 % 0.0 in /  0 mm 0.0 W/m2 CLR
02:12 4.4 °F /  -15.3 °C 2.2 °F /  -16.6 °C 1027.0 in /  34774.2 hPa NW 31.5 mph /  50.7 km/h 31.5 mph /  50.7 km/h 85 % 0.0 in /  0 mm 0.0 W/m2 CLR
02:17 4.4 °F /  -15.3 °C 2.2 °F /  -16.6 °C 1027.0 in /  34774.2 hPa NW 31.5 mph /  50.7 km/h 31.5 mph /  50.7 km/h 85 % 0.0 in /  0 mm 0.0 W/m2 CLR
02:22 4.4 °F /  -15.3 °C 2.2 °F /  -16.6 °C 1027.0 in /  34774.2 hPa NW 31.5 mph /  50.7 km/h 31.5 mph /  50.7 km/h 85 % 0.0 in /  0 mm 0.0 W/m2 CLR
02:27 4.4 °F /  -15.3 °C 2.2 °F /  -16.6 °C 1027.0 in /  34774.2 hPa NW 29.6 mph /  47.6 km/h 29.6 mph /  47.6 km/h 85 % 0.0 in /  0 mm 0.0 W/m2 CLR
02:32 4.4 °F /  -15.3 °C 2.2 °F /  -16.6 °C 1027.0 in /  34774.2 hPa NW 29.6 mph /  47.6 km/h 29.6 mph /  47.6 km/h 85 % 0.0 in /  0 mm 0.0 W/m2 CLR
02:37 4.4 °F /  -15.3 °C 2.2 °F /  -16.6 °C 1027.0 in /  34774.2 hPa NW 27.4 mph /  44.1 km/h 27.4 mph /  44.1 km/h 85 % 0.0 in /  0 mm 0.0 W/m2 CLR
02:42 4.4 °F /  -15.3 °C 2.0 °F /  -16.7 °C 1027.0 in /  34774.2 hPa NW 24.1 mph /  38.8 km/h 24.1 mph /  38.8 km/h 84 % 0.0 in /  0 mm 0.0 W/m2 CLR
02:47 4.4 °F /  -15.3 °C 2.0 °F /  -16.7 °C 1027.0 in /  34774.2 hPa NW 27.8 mph /  44.7 km/h 27.8 mph /  44.7 km/h 84 % 0.0 in /  0 mm 0.0 W/m2 CLR
02:52 4.4 °F /  -15.3 °C 2.0 °F /  -16.7 °C 1027.0 in /  34774.2 hPa West 27.8 mph /  44.7 km/h 27.8 mph /  44.7 km/h 84 % 0.0 in /  0 mm 0.0 W/m2 CLR
02:57 4.4 °F /  -15.3 °C 2.0 °F /  -16.7 °C 1027.0 in /  34774.2 hPa NW 20.9 mph /  33.6 km/h 20.9 mph /  33.6 km/h 84 % 0.0 in /  0 mm 0.0 W/m2 CLR
03:02 4.4 °F /  -15.3 °C 2.0 °F /  -16.7 °C 1027.0 in /  34774.2 hPa NW 24.1 mph /  38.8 km/h 24.1 mph /  38.8 km/h 84 % 0.0 in /  0 mm 0.0 W/m2 CLR
03:07 4.4 °F /  -15.3 °C 2.0 °F /  -16.7 °C 1027.0 in /  34774.2 hPa WNW 22.5 mph /  36.2 km/h 22.5 mph /  36.2 km/h 84 % 0.0 in /  0 mm 0.0 W/m2 CLR
03:12 4.4 °F /  -15.3 °C 2.0 °F /  -16.7 °C 1027.0 in /  34774.2 hPa NW 29.6 mph /  47.6 km/h 29.6 mph /  47.6 km/h 84 % 0.0 in /  0 mm 0.0 W/m2 CLR
03:17 4.4 °F /  -15.3 °C 2.2 °F /  -16.6 °C 1027.0 in /  34774.2 hPa NNW 31.5 mph /  50.7 km/h 31.5 mph /  50.7 km/h 85 % 0.0 in /  0 mm 0.0 W/m2 CLR
03:22 4.4 °F /  -15.3 °C 2.0 °F /  -16.7 °C 1027.0 in /  34774.2 hPa NW 33.3 mph /  53.6 km/h 33.3 mph /  53.6 km/h 84 % 0.0 in /  0 mm 0.0 W/m2 CLR
03:27 4.4 °F /  -15.3 °C 2.0 °F /  -16.7 °C 1027.0 in /  34774.2 hPa NW 24.1 mph /  38.8 km/h 24.1 mph /  38.8 km/h 84 % 0.0 in /  0 mm 0.0 W/m2 CLR
03:32 4.4 °F /  -15.3 °C 2.2 °F /  -16.6 °C 1027.0 in /  34774.2 hPa NW 22.2 mph /  35.7 km/h 22.2 mph /  35.7 km/h 85 % 0.0 in /  0 mm 0.0 W/m2 CLR
03:37 4.4 °F /  -15.3 °C 2.2 °F /  -16.6 °C 1027.0 in /  34774.2 hPa NW 25.9 mph /  41.7 km/h 25.9 mph /  41.7 km/h 85 % 0.0 in /  0 mm 0.0 W/m2 CLR
03:42 4.4 °F /  -15.3 °C 2.2 °F /  -16.6 °C 1027.0 in /  34774.2 hPa NW 31.5 mph /  50.7 km/h 31.5 mph /  50.7 km/h 85 % 0.0 in /  0 mm 0.0 W/m2 CLR
03:47 4.4 °F /  -15.3 °C 2.2 °F /  -16.6 °C 1027.0 in /  34774.2 hPa NW 27.4 mph /  44.1 km/h 27.4 mph /  44.1 km/h 85 % 0.0 in /  0 mm 0.0 W/m2 CLR
03:52 4.4 °F /  -15.3 °C 2.0 °F /  -16.7 °C 1027.0 in /  34774.2 hPa WNW 24.1 mph /  38.8 km/h 24.1 mph /  38.8 km/h 84 % 0.0 in /  0 mm 0.0 W/m2 CLR
03:57 4.4 °F /  -15.3 °C 2.0 °F /  -16.7 °C 1027.0 in /  34774.2 hPa NW 25.9 mph /  41.7 km/h 25.9 mph /  41.7 km/h 84 % 0.0 in /  0 mm 0.0 W/m2 CLR
04:02 4.4 °F /  -15.3 °C 2.2 °F /  -16.6 °C 1027.0 in /  34774.2 hPa WNW 27.4 mph /  44.1 km/h 27.4 mph /  44.1 km/h 85 % 0.0 in /  0 mm 0.0 W/m2 CLR
04:07 4.4 °F /  -15.3 °C 2.0 °F /  -16.7 °C 1027.0 in /  34774.2 hPa NW 25.9 mph /  41.7 km/h 25.9 mph /  41.7 km/h 84 % 0.0 in /  0 mm 0.0 W/m2 CLR
04:12 4.4 °F /  -15.3 °C 2.0 °F /  -16.7 °C 1027.0 in /  34774.2 hPa NW 29.6 mph /  47.6 km/h 29.6 mph /  47.6 km/h 84 % 0.0 in /  0 mm 0.0 W/m2 CLR
04:17 4.4 °F /  -15.3 °C 2.2 °F /  -16.6 °C 1027.0 in /  34774.2 hPa NNW 31.5 mph /  50.7 km/h 31.5 mph /  50.7 km/h 85 % 0.0 in /  0 mm 0.0 W/m2 CLR
04:22 4.4 °F /  -15.3 °C 2.2 °F /  -16.6 °C 1027.0 in /  34774.2 hPa NNW 31.5 mph /  50.7 km/h 31.5 mph /  50.7 km/h 85 % 0.0 in /  0 mm 0.0 W/m2 CLR
04:27 4.4 °F /  -15.3 °C 2.2 °F /  -16.6 °C 1027.0 in /  34774.2 hPa NW 38.9 mph /  62.6 km/h 38.9 mph /  62.6 km/h 85 % 0.0 in /  0 mm 0.0 W/m2 CLR
04:32 4.4 °F /  -15.3 °C 2.2 °F /  -16.6 °C 1027.0 in /  34774.2 hPa NW 35.2 mph /  56.6 km/h 35.2 mph /  56.6 km/h 85 % 0.0 in /  0 mm 0.0 W/m2 CLR
04:37 4.4 °F /  -15.3 °C 2.2 °F /  -16.6 °C 1027.0 in /  34774.2 hPa NW 31.5 mph /  50.7 km/h 31.5 mph /  50.7 km/h 85 % 0.0 in /  0 mm 0.0 W/m2 CLR
04:42 4.4 °F /  -15.3 °C 2.2 °F /  -16.6 °C 1027.3 in /  34784.4 hPa NW 31.5 mph /  50.7 km/h 31.5 mph /  50.7 km/h 85 % 0.0 in /  0 mm 0.0 W/m2 CLR
04:47 4.4 °F /  -15.3 °C 2.2 °F /  -16.6 °C 1027.3 in /  34784.4 hPa WNW 35.2 mph /  56.6 km/h 35.2 mph /  56.6 km/h 85 % 0.0 in /  0 mm 0.0 W/m2 CLR
04:52 4.4 °F /  -15.3 °C 2.2 °F /  -16.6 °C 1027.3 in /  34784.4 hPa NW 27.8 mph /  44.7 km/h 27.8 mph /  44.7 km/h 85 % 0.0 in /  0 mm 0.0 W/m2 CLR
04:58 4.4 °F /  -15.3 °C 2.2 °F /  -16.6 °C 1027.3 in /  34784.4 hPa NW 31.5 mph /  50.7 km/h 31.5 mph /  50.7 km/h 85 % 0.0 in /  0 mm 0.0 W/m2 CLR
05:03 4.4 °F /  -15.3 °C 2.2 °F /  -16.6 °C 1027.3 in /  34784.4 hPa NW 29.6 mph /  47.6 km/h 29.6 mph /  47.6 km/h 85 % 0.0 in /  0 mm 0.0 W/m2 CLR
05:08 4.4 °F /  -15.3 °C 2.2 °F /  -16.6 °C 1027.3 in /  34784.4 hPa NW 37.0 mph /  59.5 km/h 37.0 mph /  59.5 km/h 85 % 0.0 in /  0 mm 0.0 W/m2 CLR
05:13 4.4 °F /  -15.3 °C 2.2 °F /  -16.6 °C 1027.3 in /  34784.4 hPa WNW 31.5 mph /  50.7 km/h 31.5 mph /  50.7 km/h 85 % 0.0 in /  0 mm 0.0 W/m2 CLR
05:18 4.4 °F /  -15.3 °C 2.2 °F /  -16.6 °C 1027.3 in /  34784.4 hPa WNW 29.6 mph /  47.6 km/h 29.6 mph /  47.6 km/h 85 % 0.0 in /  0 mm 0.0 W/m2 CLR
05:23 4.4 °F /  -15.3 °C 2.2 °F /  -16.6 °C 1027.7 in /  34797.9 hPa NW 25.9 mph /  41.7 km/h 25.9 mph /  41.7 km/h 85 % 0.0 in /  0 mm 0.0 W/m2 CLR
05:28 4.4 °F /  -15.3 °C 2.2 °F /  -16.6 °C 1027.7 in /  34797.9 hPa NW 31.5 mph /  50.7 km/h 31.5 mph /  50.7 km/h 85 % 0.0 in /  0 mm 0.0 W/m2 CLR
05:33 4.4 °F /  -15.3 °C 2.0 °F /  -16.7 °C 1027.7 in /  34797.9 hPa WNW 33.3 mph /  53.6 km/h 33.3 mph /  53.6 km/h 84 % 0.0 in /  0 mm 0.0 W/m2 CLR
05:38 4.4 °F /  -15.3 °C 2.0 °F /  -16.7 °C 1027.7 in /  34797.9 hPa WNW 22.2 mph /  35.7 km/h 22.2 mph /  35.7 km/h 84 % 0.0 in /  0 mm 0.0 W/m2 CLR
05:43 4.4 °F /  -15.3 °C 2.0 °F /  -16.7 °C 1027.7 in /  34797.9 hPa WNW 18.5 mph /  29.8 km/h 18.5 mph /  29.8 km/h 84 % 0.0 in /  0 mm 0.0 W/m2 CLR
05:48 4.4 °F /  -15.3 °C 2.0 °F /  -16.7 °C 1027.7 in /  34797.9 hPa NW 24.1 mph /  38.8 km/h 24.1 mph /  38.8 km/h 84 % 0.0 in /  0 mm 0.0 W/m2 CLR
05:53 4.4 °F /  -15.3 °C 2.0 °F /  -16.7 °C 1027.7 in /  34797.9 hPa NW 22.2 mph /  35.7 km/h 22.2 mph /  35.7 km/h 84 % 0.0 in /  0 mm 0.0 W/m2 CLR
05:58 4.4 °F /  -15.3 °C 2.0 °F /  -16.7 °C 1027.7 in /  34797.9 hPa NW 22.5 mph /  36.2 km/h 22.5 mph /  36.2 km/h 84 % 0.0 in /  0 mm 0.0 W/m2 CLR
06:03 4.4 °F /  -15.3 °C 2.0 °F /  -16.7 °C 1027.7 in /  34797.9 hPa NW 24.1 mph /  38.8 km/h 24.1 mph /  38.8 km/h 84 % 0.0 in /  0 mm 0.0 W/m2 CLR
06:08 4.4 °F /  -15.3 °C 2.0 °F /  -16.7 °C 1027.7 in /  34797.9 hPa WNW 22.2 mph /  35.7 km/h 22.2 mph /  35.7 km/h 84 % 0.0 in /  0 mm 0.0 W/m2 CLR
06:13 4.4 °F /  -15.3 °C 2.0 °F /  -16.7 °C 1027.7 in /  34797.9 hPa WNW 27.8 mph /  44.7 km/h 27.8 mph /  44.7 km/h 84 % 0.0 in /  0 mm 0.0 W/m2 CLR
06:18 4.4 °F /  -15.3 °C 2.0 °F /  -16.7 °C 1028.0 in /  34808.1 hPa WNW 24.1 mph /  38.8 km/h 24.1 mph /  38.8 km/h 84 % 0.0 in /  0 mm 0.0 W/m2 CLR
06:23 4.4 °F /  -15.3 °C 2.0 °F /  -16.7 °C 1028.0 in /  34808.1 hPa NW 24.1 mph /  38.8 km/h 24.1 mph /  38.8 km/h 84 % 0.0 in /  0 mm 0.0 W/m2 CLR
06:28 4.4 °F /  -15.3 °C 2.0 °F /  -16.7 °C 1027.7 in /  34797.9 hPa WNW 24.1 mph /  38.8 km/h 24.1 mph /  38.8 km/h 84 % 0.0 in /  0 mm 0.0 W/m2 CLR
06:33 4.4 °F /  -15.3 °C 2.0 °F /  -16.7 °C 1028.0 in /  34808.1 hPa WNW 25.9 mph /  41.7 km/h 25.9 mph /  41.7 km/h 84 % 0.0 in /  0 mm 0.0 W/m2 CLR
06:38 4.4 °F /  -15.3 °C 2.0 °F /  -16.7 °C 1028.0 in /  34808.1 hPa NW 18.5 mph /  29.8 km/h 18.5 mph /  29.8 km/h 84 % 0.0 in /  0 mm 0.0 W/m2 CLR
06:43 3.9 °F /  -15.6 °C 1.3 °F /  -17.1 °C 1028.0 in /  34808.1 hPa WNW 16.1 mph /  25.9 km/h 16.1 mph /  25.9 km/h 83 % 0.0 in /  0 mm 0.0 W/m2 CLR
06:48 3.9 °F /  -15.6 °C 1.3 °F /  -17.1 °C 1028.0 in /  34808.1 hPa WNW 24.1 mph /  38.8 km/h 24.1 mph /  38.8 km/h 83 % 0.0 in /  0 mm 0.0 W/m2 CLR
06:53 3.9 °F /  -15.6 °C 1.4 °F /  -17 °C 1028.0 in /  34808.1 hPa West 18.5 mph /  29.8 km/h 18.5 mph /  29.8 km/h 84 % 0.0 in /  0 mm 0.0 W/m2 CLR
06:58 3.9 °F /  -15.6 °C 1.4 °F /  -17 °C 1028.0 in /  34808.1 hPa NW 16.7 mph /  26.9 km/h 16.7 mph /  26.9 km/h 84 % 0.0 in /  0 mm 0.0 W/m2 CLR
07:03 3.9 °F /  -15.6 °C 1.4 °F /  -17 °C 1028.3 in /  34818.2 hPa NW 20.4 mph /  32.8 km/h 20.4 mph /  32.8 km/h 84 % 0.0 in /  0 mm 0.0 W/m2 CLR
07:08 3.9 °F /  -15.6 °C 1.4 °F /  -17 °C 1028.0 in /  34808.1 hPa NW 16.1 mph /  25.9 km/h 16.1 mph /  25.9 km/h 84 % 0.0 in /  0 mm 0.0 W/m2 CLR
07:13 3.9 °F /  -15.6 °C 1.4 °F /  -17 °C 1028.0 in /  34808.1 hPa WNW 22.2 mph /  35.7 km/h 22.2 mph /  35.7 km/h 84 % 0.0 in /  0 mm 0.0 W/m2 CLR
07:18 3.9 °F /  -15.6 °C 1.4 °F /  -17 °C 1028.3 in /  34818.2 hPa ESE 14.8 mph /  23.8 km/h 14.8 mph /  23.8 km/h 84 % 0.0 in /  0 mm 0.0 W/m2 CLR
07:23 3.9 °F /  -15.6 °C 1.4 °F /  -17 °C 1028.3 in /  34818.2 hPa ESE 14.8 mph /  23.8 km/h 14.8 mph /  23.8 km/h 84 % 0.0 in /  0 mm 0.0 W/m2 CLR
07:28 3.9 °F /  -15.6 °C 1.4 °F /  -17 °C 1028.3 in /  34818.2 hPa NW 16.7 mph /  26.9 km/h 16.7 mph /  26.9 km/h 84 % 0.0 in /  0 mm 0.0 W/m2 CLR
07:33 3.9 °F /  -15.6 °C 1.4 °F /  -17 °C 1028.7 in /  34831.8 hPa ESE 20.9 mph /  33.6 km/h 20.9 mph /  33.6 km/h 84 % 0.0 in /  0 mm 0.0 W/m2 CLR
07:38 3.9 °F /  -15.6 °C 1.4 °F /  -17 °C 1028.7 in /  34831.8 hPa ESE 22.2 mph /  35.7 km/h 22.2 mph /  35.7 km/h 84 % 0.0 in /  0 mm 0.0 W/m2 CLR
07:43 3.3 °F /  -15.9 °C 0.9 °F /  -17.3 °C 1029.0 in /  34841.9 hPa NW 14.8 mph /  23.8 km/h 14.8 mph /  23.8 km/h 84 % 0.0 in /  0 mm 0.0 W/m2 CLR
07:48 3.9 °F /  -15.6 °C 1.4 °F /  -17 °C 1029.0 in /  34841.9 hPa NW 9.7 mph /  15.6 km/h 9.7 mph /  15.6 km/h 84 % 0.0 in /  0 mm 0.0 W/m2 CLR
07:53 3.3 °F /  -15.9 °C 0.9 °F /  -17.3 °C 1029.3 in /  34852.1 hPa ESE 18.5 mph /  29.8 km/h 18.5 mph /  29.8 km/h 84 % 0.0 in /  0 mm 0.0 W/m2 CLR
07:58 3.3 °F /  -15.9 °C 0.9 °F /  -17.3 °C 1029.3 in /  34852.1 hPa NW 18.5 mph /  29.8 km/h 18.5 mph /  29.8 km/h 84 % 0.0 in /  0 mm 0.0 W/m2 CLR
08:03 3.3 °F /  -15.9 °C 0.7 °F /  -17.4 °C 1029.3 in /  34852.1 hPa NW 18.5 mph /  29.8 km/h 18.5 mph /  29.8 km/h 83 % 0.0 in /  0 mm 0.0 W/m2 CLR
08:08 3.9 °F /  -15.6 °C 1.3 °F /  -17.1 °C 1029.0 in /  34841.9 hPa NW 24.1 mph /  38.8 km/h 24.1 mph /  38.8 km/h 83 % 0.0 in /  0 mm 0.0 W/m2 OVC
08:13 3.9 °F /  -15.6 °C 1.3 °F /  -17.1 °C 1029.0 in /  34841.9 hPa ESE 25.9 mph /  41.7 km/h 25.9 mph /  41.7 km/h 83 % 0.0 in /  0 mm 0.0 W/m2 OVC
08:18 3.9 °F /  -15.6 °C 1.3 °F /  -17.1 °C 1029.0 in /  34841.9 hPa NW 25.9 mph /  41.7 km/h 25.9 mph /  41.7 km/h 83 % 0.0 in /  0 mm 5.0 W/m2 OVC
08:23 3.3 °F /  -15.9 °C 0.7 °F /  -17.4 °C 1029.0 in /  34841.9 hPa ESE 24.1 mph /  38.8 km/h 24.1 mph /  38.8 km/h 83 % 0.0 in /  0 mm 7.0 W/m2 OVC
08:28 3.9 °F /  -15.6 °C 1.3 °F /  -17.1 °C 1029.3 in /  34852.1 hPa ESE 24.1 mph /  38.8 km/h 24.1 mph /  38.8 km/h 83 % 0.0 in /  0 mm 9.0 W/m2 BKN
08:33 3.9 °F /  -15.6 °C 1.3 °F /  -17.1 °C 1029.3 in /  34852.1 hPa NNW 27.8 mph /  44.7 km/h 27.8 mph /  44.7 km/h 83 % 0.0 in /  0 mm 11.0 W/m2 BKN
08:38 3.9 °F /  -15.6 °C 1.3 °F /  -17.1 °C 1029.3 in /  34852.1 hPa ESE 25.9 mph /  41.7 km/h 25.9 mph /  41.7 km/h 83 % 0.0 in /  0 mm 14.0 W/m2 BKN
08:43 3.9 °F /  -15.6 °C 1.3 °F /  -17.1 °C 1029.3 in /  34852.1 hPa ESE 24.1 mph /  38.8 km/h 24.1 mph /  38.8 km/h 83 % 0.0 in /  0 mm 18.0 W/m2 BKN
08:48 3.9 °F /  -15.6 °C 1.3 °F /  -17.1 °C 1029.7 in /  34865.6 hPa NW 14.8 mph /  23.8 km/h 14.8 mph /  23.8 km/h 83 % 0.0 in /  0 mm 25.0 W/m2 BKN
08:53 3.9 °F /  -15.6 °C 1.3 °F /  -17.1 °C 1029.7 in /  34865.6 hPa ESE 18.5 mph /  29.8 km/h 18.5 mph /  29.8 km/h 83 % 0.0 in /  0 mm 33.0 W/m2 BKN
08:58 3.9 °F /  -15.6 °C 1.3 °F /  -17.1 °C 1029.7 in /  34865.6 hPa ESE 16.7 mph /  26.9 km/h 16.7 mph /  26.9 km/h 83 % 0.0 in /  0 mm 44.0 W/m2 BKN
09:03 3.9 °F /  -15.6 °C 1.3 °F /  -17.1 °C 1030.0 in /  34875.8 hPa WNW 17.7 mph /  28.5 km/h 17.7 mph /  28.5 km/h 83 % 0.0 in /  0 mm 53.0 W/m2 SCT
09:08 3.9 °F /  -15.6 °C 1.1 °F /  -17.2 °C 1030.0 in /  34875.8 hPa WNW 22.2 mph /  35.7 km/h 22.2 mph /  35.7 km/h 82 % 0.0 in /  0 mm 70.0 W/m2 FEW
09:13 4.4 °F /  -15.3 °C 1.6 °F /  -16.9 °C 1030.0 in /  34875.8 hPa NW 24.1 mph /  38.8 km/h 24.1 mph /  38.8 km/h 82 % 0.0 in /  0 mm 83.0 W/m2 FEW
09:18 4.4 °F /  -15.3 °C 1.6 °F /  -16.9 °C 1030.0 in /  34875.8 hPa NW 22.5 mph /  36.2 km/h 22.5 mph /  36.2 km/h 82 % 0.0 in /  0 mm 97.0 W/m2 FEW
09:23 4.4 °F /  -15.3 °C 1.4 °F /  -17 °C 1030.0 in /  34875.8 hPa WNW 22.5 mph /  36.2 km/h 22.5 mph /  36.2 km/h 81 % 0.0 in /  0 mm 111.0 W/m2 CLR
09:28 5.0 °F /  -15 °C 2.0 °F /  -16.7 °C 1030.0 in /  34875.8 hPa NW 22.5 mph /  36.2 km/h 22.5 mph /  36.2 km/h 81 % 0.0 in /  0 mm 104.0 W/m2 CLR
09:33 5.0 °F /  -15 °C 2.0 °F /  -16.7 °C 1030.0 in /  34875.8 hPa NW 22.5 mph /  36.2 km/h 22.5 mph /  36.2 km/h 81 % 0.0 in /  0 mm 144.0 W/m2 CLR
09:38 5.0 °F /  -15 °C 2.0 °F /  -16.7 °C 1030.4 in /  34889.3 hPa WNW 24.1 mph /  38.8 km/h 24.1 mph /  38.8 km/h 81 % 0.0 in /  0 mm 160.0 W/m2 CLR
09:43 5.0 °F /  -15 °C 1.8 °F /  -16.8 °C 1030.4 in /  34889.3 hPa NW 24.1 mph /  38.8 km/h 24.1 mph /  38.8 km/h 80 % 0.0 in /  0 mm 114.0 W/m2 CLR
09:48 5.6 °F /  -14.7 °C 2.4 °F /  -16.4 °C 1030.4 in /  34889.3 hPa NW 18.5 mph /  29.8 km/h 18.5 mph /  29.8 km/h 80 % 0.0 in /  0 mm 151.0 W/m2 CLR
09:53 5.6 °F /  -14.7 °C 2.4 °F /  -16.4 °C 1030.4 in /  34889.3 hPa NW 20.4 mph /  32.8 km/h 20.4 mph /  32.8 km/h 80 % 0.0 in /  0 mm 127.0 W/m2 CLR
09:58 5.6 °F /  -14.7 °C 2.4 °F /  -16.4 °C 1030.4 in /  34889.3 hPa NW 22.2 mph /  35.7 km/h 22.2 mph /  35.7 km/h 80 % 0.0 in /  0 mm 250.0 W/m2 CLR
10:03 5.6 °F /  -14.7 °C 2.4 °F /  -16.4 °C 1030.4 in /  34889.3 hPa NW 22.2 mph /  35.7 km/h 22.2 mph /  35.7 km/h 80 % 0.0 in /  0 mm 283.0 W/m2 CLR
10:08 6.1 °F /  -14.4 °C 2.9 °F /  -16.2 °C 1030.4 in /  34889.3 hPa NW 25.9 mph /  41.7 km/h 25.9 mph /  41.7 km/h 80 % 0.0 in /  0 mm 306.0 W/m2 CLR
10:13 6.1 °F /  -14.4 °C 2.9 °F /  -16.2 °C 1030.7 in /  34899.5 hPa WNW 25.7 mph /  41.4 km/h 25.7 mph /  41.4 km/h 80 % 0.0 in /  0 mm 181.0 W/m2 CLR
10:18 6.1 °F /  -14.4 °C 2.7 °F /  -16.3 °C 1030.7 in /  34899.5 hPa NW 33.3 mph /  53.6 km/h 33.3 mph /  53.6 km/h 79 % 0.0 in /  0 mm 209.0 W/m2 CLR
10:23 6.1 °F /  -14.4 °C 2.7 °F /  -16.3 °C 1030.7 in /  34899.5 hPa NW 24.1 mph /  38.8 km/h 24.1 mph /  38.8 km/h 79 % 0.0 in /  0 mm 241.0 W/m2 CLR
10:28 6.1 °F /  -14.4 °C 2.7 °F /  -16.3 °C 1030.7 in /  34899.5 hPa NW 22.2 mph /  35.7 km/h 22.2 mph /  35.7 km/h 79 % 0.0 in /  0 mm 156.0 W/m2 CLR
10:33 6.7 °F /  -14.1 °C 3.3 °F /  -15.9 °C 1031.0 in /  34909.7 hPa NW 18.5 mph /  29.8 km/h 18.5 mph /  29.8 km/h 79 % 0.0 in /  0 mm 380.0 W/m2 CLR
10:38 6.7 °F /  -14.1 °C 3.3 °F /  -15.9 °C 1031.0 in /  34909.7 hPa NW 27.8 mph /  44.7 km/h 27.8 mph /  44.7 km/h 79 % 0.0 in /  0 mm 330.0 W/m2 CLR
10:43 6.7 °F /  -14.1 °C 3.1 °F /  -16.1 °C 1031.0 in /  34909.7 hPa NW 22.2 mph /  35.7 km/h 22.2 mph /  35.7 km/h 78 % 0.0 in /  0 mm 171.0 W/m2 CLR
10:48 6.7 °F /  -14.1 °C 3.1 °F /  -16.1 °C 1031.4 in /  34923.2 hPa NNW 25.9 mph /  41.7 km/h 25.9 mph /  41.7 km/h 78 % 0.0 in /  0 mm 214.0 W/m2 CLR
10:53 6.7 °F /  -14.1 °C 3.1 °F /  -16.1 °C 1031.4 in /  34923.2 hPa NW 13.0 mph /  20.9 km/h 13.0 mph /  20.9 km/h 78 % 0.0 in /  0 mm 346.0 W/m2 CLR
10:58 7.2 °F /  -13.8 °C 3.7 °F /  -15.7 °C 1031.4 in /  34923.2 hPa NNW 16.7 mph /  26.9 km/h 16.7 mph /  26.9 km/h 78 % 0.0 in /  0 mm 241.0 W/m2 CLR
11:03 7.2 °F /  -13.8 °C 3.7 °F /  -15.7 °C 1031.4 in /  34923.2 hPa NW 18.5 mph /  29.8 km/h 18.5 mph /  29.8 km/h 78 % 0.0 in /  0 mm 211.0 W/m2 CLR
11:08 7.2 °F /  -13.8 °C 3.7 °F /  -15.7 °C 1031.4 in /  34923.2 hPa NW 14.8 mph /  23.8 km/h 14.8 mph /  23.8 km/h 78 % 0.0 in /  0 mm 392.0 W/m2 CLR
11:13 7.2 °F /  -13.8 °C 3.4 °F /  -15.9 °C 1031.4 in /  34923.2 hPa NNW 22.2 mph /  35.7 km/h 22.2 mph /  35.7 km/h 77 % 0.0 in /  0 mm 462.0 W/m2 CLR
11:18 7.8 °F /  -13.4 °C 4.0 °F /  -15.6 °C 1031.4 in /  34923.2 hPa NW 20.4 mph /  32.8 km/h 20.4 mph /  32.8 km/h 77 % 0.0 in /  0 mm 378.0 W/m2 CLR
11:24 7.8 °F /  -13.4 °C 4.0 °F /  -15.6 °C 1031.4 in /  34923.2 hPa NW 22.2 mph /  35.7 km/h 22.4 mph /  36 km/h 77 % 0.0 in /  0 mm 464.0 W/m2 CLR
11:29 7.8 °F /  -13.4 °C 3.8 °F /  -15.7 °C 1031.4 in /  34923.2 hPa NNW 25.9 mph /  41.7 km/h 25.9 mph /  41.7 km/h 76 % 0.0 in /  0 mm 527.0 W/m2 CLR
11:34 8.3 °F /  -13.2 °C 4.2 °F /  -15.4 °C 1031.4 in /  34923.2 hPa NNW 17.7 mph /  28.5 km/h 17.7 mph /  28.5 km/h 75 % 0.0 in /  0 mm 292.0 W/m2 CLR
11:39 8.3 °F /  -13.2 °C 4.2 °F /  -15.4 °C 1031.7 in /  34933.4 hPa North 18.5 mph /  29.8 km/h 18.5 mph /  29.8 km/h 75 % 0.0 in /  0 mm 519.0 W/m2 CLR
11:44 8.3 °F /  -13.2 °C 4.2 °F /  -15.4 °C 1031.7 in /  34933.4 hPa NNW 14.8 mph /  23.8 km/h 14.8 mph /  23.8 km/h 75 % 0.0 in /  0 mm 383.0 W/m2 CLR
11:49 8.3 °F /  -13.2 °C 3.8 °F /  -15.7 °C 1031.7 in /  34933.4 hPa NNW 20.4 mph /  32.8 km/h 20.4 mph /  32.8 km/h 73 % 0.0 in /  0 mm 216.0 W/m2 CLR
11:54 8.3 °F /  -13.2 °C 4.2 °F /  -15.4 °C 1031.7 in /  34933.4 hPa NNW 17.7 mph /  28.5 km/h 17.7 mph /  28.5 km/h 75 % 0.0 in /  0 mm 345.0 W/m2 CLR
11:59 8.3 °F /  -13.2 °C 4.2 °F /  -15.4 °C 1032.1 in /  34946.9 hPa NNW 18.5 mph /  29.8 km/h 18.5 mph /  29.8 km/h 75 % 0.0 in /  0 mm 605.0 W/m2 CLR
12:04 8.9 °F /  -12.8 °C 4.5 °F /  -15.3 °C 1032.1 in /  34946.9 hPa WNW 14.8 mph /  23.8 km/h 14.8 mph /  23.8 km/h 74 % 0.0 in /  0 mm 311.0 W/m2 CLR
12:09 8.9 °F /  -12.8 °C 4.5 °F /  -15.3 °C 1032.1 in /  34946.9 hPa NNW 18.5 mph /  29.8 km/h 18.5 mph /  29.8 km/h 74 % 0.0 in /  0 mm 385.0 W/m2 CLR
12:14 9.4 °F /  -12.6 °C 4.8 °F /  -15.1 °C 1032.1 in /  34946.9 hPa NW 16.7 mph /  26.9 km/h 16.7 mph /  26.9 km/h 73 % 0.0 in /  0 mm 455.0 W/m2 CLR
12:19 8.9 °F /  -12.8 °C 4.5 °F /  -15.3 °C 1031.7 in /  34933.4 hPa NNW 18.5 mph /  29.8 km/h 18.5 mph /  29.8 km/h 74 % 0.0 in /  0 mm 476.0 W/m2 CLR
12:24 8.9 °F /  -12.8 °C 4.5 °F /  -15.3 °C 1031.7 in /  34933.4 hPa WNW 16.7 mph /  26.9 km/h 16.7 mph /  26.9 km/h 74 % 0.0 in /  0 mm 404.0 W/m2 CLR
12:29 8.9 °F /  -12.8 °C 4.1 °F /  -15.5 °C 1031.7 in /  34933.4 hPa NNW 20.4 mph /  32.8 km/h 20.4 mph /  32.8 km/h 72 % 0.0 in /  0 mm 241.0 W/m2 CLR
12:34 8.9 °F /  -12.8 °C 3.9 °F /  -15.6 °C 1031.7 in /  34933.4 hPa North 19.3 mph /  31.1 km/h 19.3 mph /  31.1 km/h 71 % 0.0 in /  0 mm 403.0 W/m2 CLR
12:39 9.4 °F /  -12.6 °C 4.7 °F /  -15.2 °C 1031.7 in /  34933.4 hPa North 18.5 mph /  29.8 km/h 18.5 mph /  29.8 km/h 72 % 0.0 in /  0 mm 538.0 W/m2 CLR
12:44 9.4 °F /  -12.6 °C 4.8 °F /  -15.1 °C 1031.7 in /  34933.4 hPa NW 19.3 mph /  31.1 km/h 19.3 mph /  31.1 km/h 73 % 0.0 in /  0 mm 476.0 W/m2 CLR
12:49 9.4 °F /  -12.6 °C 4.2 °F /  -15.4 °C 1032.1 in /  34946.9 hPa NNW 12.9 mph /  20.8 km/h 12.9 mph /  20.8 km/h 70 % 0.0 in /  0 mm 432.0 W/m2 CLR
12:54 9.4 °F /  -12.6 °C 4.1 °F /  -15.5 °C 1031.7 in /  34933.4 hPa NW 18.5 mph /  29.8 km/h 18.5 mph /  29.8 km/h 69 % 0.0 in /  0 mm 250.0 W/m2 CLR
12:59 9.4 °F /  -12.6 °C 4.2 °F /  -15.4 °C 1031.7 in /  34933.4 hPa Calm     70 % 0.0 in /  0 mm 269.0 W/m2 CLR
13:04 9.4 °F /  -12.6 °C 4.1 °F /  -15.5 °C 1031.7 in /  34933.4 hPa NNW 16.7 mph /  26.9 km/h 16.7 mph /  26.9 km/h 69 % 0.0 in /  0 mm 380.0 W/m2 CLR
13:09 10.0 °F /  -12.2 °C 5.0 °F /  -15 °C 1031.7 in /  34933.4 hPa NNW 18.5 mph /  29.8 km/h 18.5 mph /  29.8 km/h 71 % 0.0 in /  0 mm 540.0 W/m2 CLR
13:14 10.0 °F /  -12.2 °C 4.8 °F /  -15.1 °C 1031.7 in /  34933.4 hPa NNW 16.7 mph /  26.9 km/h 16.7 mph /  26.9 km/h 70 % 0.0 in /  0 mm 469.0 W/m2 CLR
13:19 10.0 °F /  -12.2 °C 4.2 °F /  -15.4 °C 1031.7 in /  34933.4 hPa NNW 16.7 mph /  26.9 km/h 16.7 mph /  26.9 km/h 67 % 0.0 in /  0 mm 323.0 W/m2 CLR
13:24 10.0 °F /  -12.2 °C 3.9 °F /  -15.6 °C 1031.7 in /  34933.4 hPa Calm     66 % 0.0 in /  0 mm 353.0 W/m2 CLR
13:29 10.0 °F /  -12.2 °C 4.3 °F /  -15.4 °C 1031.7 in /  34933.4 hPa NNW 20.4 mph /  32.8 km/h 20.4 mph /  32.8 km/h 68 % 0.0 in /  0 mm 439.0 W/m2 CLR
13:34 10.0 °F /  -12.2 °C 4.2 °F /  -15.4 °C 1031.4 in /  34923.2 hPa NW 18.5 mph /  29.8 km/h 18.5 mph /  29.8 km/h 67 % 0.0 in /  0 mm 575.0 W/m2 CLR
13:39 10.6 °F /  -11.9 °C 4.0 °F /  -15.6 °C 1031.4 in /  34923.2 hPa NW 14.8 mph /  23.8 km/h 14.8 mph /  23.8 km/h 64 % 0.0 in /  0 mm 578.0 W/m2 CLR
13:44 10.6 °F /  -11.9 °C 4.7 °F /  -15.2 °C 1031.0 in /  34909.7 hPa NW 18.5 mph /  29.8 km/h 18.5 mph /  29.8 km/h 67 % 0.0 in /  0 mm 526.0 W/m2 CLR
13:49 10.6 °F /  -11.9 °C 4.2 °F /  -15.4 °C 1031.4 in /  34923.2 hPa NW 14.8 mph /  23.8 km/h 14.8 mph /  23.8 km/h 65 % 0.0 in /  0 mm 445.0 W/m2 CLR
13:54 10.6 °F /  -11.9 °C 4.9 °F /  -15.1 °C 1031.0 in /  34909.7 hPa North 18.5 mph /  29.8 km/h 18.5 mph /  29.8 km/h 68 % 0.0 in /  0 mm 476.0 W/m2 CLR
13:59 10.6 °F /  -11.9 °C 4.4 °F /  -15.3 °C 1031.0 in /  34909.7 hPa NNW 22.2 mph /  35.7 km/h 22.2 mph /  35.7 km/h 66 % 0.0 in /  0 mm 490.0 W/m2 CLR
14:04 10.6 °F /  -11.9 °C 4.2 °F /  -15.4 °C 1031.0 in /  34909.7 hPa NW 14.5 mph /  23.3 km/h 14.5 mph /  23.3 km/h 65 % 0.0 in /  0 mm 515.0 W/m2 CLR
14:09 11.1 °F /  -11.6 °C 5.0 °F /  -15 °C 1031.0 in /  34909.7 hPa NW 13.0 mph /  20.9 km/h 13.0 mph /  20.9 km/h 66 % 0.0 in /  0 mm 619.0 W/m2 CLR
14:14 11.1 °F /  -11.6 °C 5.0 °F /  -15 °C 1031.0 in /  34909.7 hPa NW 18.5 mph /  29.8 km/h 18.5 mph /  29.8 km/h 66 % 0.0 in /  0 mm 376.0 W/m2 CLR
14:19 10.6 °F /  -11.9 °C 4.0 °F /  -15.6 °C 1031.0 in /  34909.7 hPa NNE 18.5 mph /  29.8 km/h 18.5 mph /  29.8 km/h 64 % 0.0 in /  0 mm 320.0 W/m2 CLR
14:24 10.6 °F /  -11.9 °C 4.0 °F /  -15.6 °C 1030.7 in /  34899.5 hPa NNW 20.4 mph /  32.8 km/h 20.4 mph /  32.8 km/h 64 % 0.0 in /  0 mm 279.0 W/m2 CLR
14:29 10.6 °F /  -11.9 °C 4.2 °F /  -15.4 °C 1031.0 in /  34909.7 hPa North 16.7 mph /  26.9 km/h 16.7 mph /  26.9 km/h 65 % 0.0 in /  0 mm 265.0 W/m2 CLR
14:34 11.1 °F /  -11.6 °C 4.6 °F /  -15.2 °C 1031.0 in /  34909.7 hPa NW 9.7 mph /  15.6 km/h 9.7 mph /  15.6 km/h 64 % 0.0 in /  0 mm 251.0 W/m2 CLR
14:39 10.6 °F /  -11.9 °C 4.0 °F /  -15.6 °C 1030.7 in /  34899.5 hPa NW 13.0 mph /  20.9 km/h 13.0 mph /  20.9 km/h 64 % 0.0 in /  0 mm 236.0 W/m2 CLR
14:44 10.6 °F /  -11.9 °C 4.2 °F /  -15.4 °C 1030.7 in /  34899.5 hPa NNW 13.0 mph /  20.9 km/h 13.0 mph /  20.9 km/h 65 % 0.0 in /  0 mm 216.0 W/m2 CLR
14:49 10.6 °F /  -11.9 °C 3.8 °F /  -15.7 °C 1031.0 in /  34909.7 hPa NNW 16.7 mph /  26.9 km/h 16.7 mph /  26.9 km/h 63 % 0.0 in /  0 mm 202.0 W/m2 CLR
14:54 10.6 °F /  -11.9 °C 3.3 °F /  -15.9 °C 1031.0 in /  34909.7 hPa North 11.1 mph /  17.9 km/h 11.1 mph /  17.9 km/h 61 % 0.0 in /  0 mm 178.0 W/m2 CLR
14:59 10.6 °F /  -11.9 °C 3.8 °F /  -15.7 °C 1031.0 in /  34909.7 hPa North 20.9 mph /  33.6 km/h 20.9 mph /  33.6 km/h 63 % 0.0 in /  0 mm 155.0 W/m2 CLR
15:04 10.6 °F /  -11.9 °C 3.6 °F /  -15.8 °C 1031.0 in /  34909.7 hPa NNW 16.7 mph /  26.9 km/h 16.7 mph /  26.9 km/h 62 % 0.0 in /  0 mm 127.0 W/m2 CLR
15:09 10.6 °F /  -11.9 °C 3.6 °F /  -15.8 °C 1031.0 in /  34909.7 hPa NNW 18.5 mph /  29.8 km/h 18.5 mph /  29.8 km/h 62 % 0.0 in /  0 mm 127.0 W/m2 CLR
15:14 10.6 °F /  -11.9 °C 3.6 °F /  -15.8 °C 1031.4 in /  34923.2 hPa NNW 18.5 mph /  29.8 km/h 18.5 mph /  29.8 km/h 62 % 0.0 in /  0 mm 128.0 W/m2 CLR
15:19 10.0 °F /  -12.2 °C 3.1 °F /  -16.1 °C 1031.4 in /  34923.2 hPa NNW 14.8 mph /  23.8 km/h 14.8 mph /  23.8 km/h 62 % 0.0 in /  0 mm 128.0 W/m2 CLR
15:24 10.0 °F /  -12.2 °C 3.3 °F /  -15.9 °C 1031.4 in /  34923.2 hPa NNW 13.0 mph /  20.9 km/h 13.0 mph /  20.9 km/h 63 % 0.0 in /  0 mm 123.0 W/m2 CLR
15:29 10.0 °F /  -12.2 °C 3.1 °F /  -16.1 °C 1031.4 in /  34923.2 hPa NNW 14.8 mph /  23.8 km/h 14.8 mph /  23.8 km/h 62 % 0.0 in /  0 mm 121.0 W/m2 CLR
15:34 10.0 °F /  -12.2 °C 3.1 °F /  -16.1 °C 1031.4 in /  34923.2 hPa NNW 12.9 mph /  20.8 km/h 12.9 mph /  20.8 km/h 62 % 0.0 in /  0 mm 132.0 W/m2 CLR
15:39 10.0 °F /  -12.2 °C 3.1 °F /  -16.1 °C 1031.4 in /  34923.2 hPa NNW 18.5 mph /  29.8 km/h 18.5 mph /  29.8 km/h 62 % 0.0 in /  0 mm 151.0 W/m2 CLR
15:44 10.6 °F /  -11.9 °C 3.3 °F /  -15.9 °C 1031.7 in /  34933.4 hPa NNW 17.7 mph /  28.5 km/h 17.7 mph /  28.5 km/h 61 % 0.0 in /  0 mm 149.0 W/m2 CLR
15:49 10.6 °F /  -11.9 °C 3.1 °F /  -16.1 °C 1031.7 in /  34933.4 hPa North 16.7 mph /  26.9 km/h 16.7 mph /  26.9 km/h 60 % 0.0 in /  0 mm 149.0 W/m2 CLR
15:54 10.6 °F /  -11.9 °C 3.6 °F /  -15.8 °C 1031.7 in /  34933.4 hPa North 11.1 mph /  17.9 km/h 11.1 mph /  17.9 km/h 62 % 0.0 in /  0 mm 141.0 W/m2 CLR
15:59 10.6 °F /  -11.9 °C 3.3 °F /  -15.9 °C 1031.7 in /  34933.4 hPa NNW 11.1 mph /  17.9 km/h 11.1 mph /  17.9 km/h 61 % 0.0 in /  0 mm 135.0 W/m2 CLR
16:04 10.6 °F /  -11.9 °C 3.6 °F /  -15.8 °C 1032.1 in /  34946.9 hPa NNW 13.0 mph /  20.9 km/h 13.0 mph /  20.9 km/h 62 % 0.0 in /  0 mm 139.0 W/m2 CLR
16:09 10.6 °F /  -11.9 °C 3.6 °F /  -15.8 °C 1031.7 in /  34933.4 hPa Calm     62 % 0.0 in /  0 mm 146.0 W/m2 CLR
16:14 10.6 °F /  -11.9 °C 2.9 °F /  -16.2 °C 1031.7 in /  34933.4 hPa North 14.8 mph /  23.8 km/h 14.8 mph /  23.8 km/h 59 % 0.0 in /  0 mm 232.0 W/m2 CLR
16:19 10.6 °F /  -11.9 °C 3.3 °F /  -15.9 °C 1031.7 in /  34933.4 hPa NNW 14.8 mph /  23.8 km/h 14.8 mph /  23.8 km/h 61 % 0.0 in /  0 mm 148.0 W/m2 CLR
16:24 10.6 °F /  -11.9 °C 3.1 °F /  -16.1 °C 1031.7 in /  34933.4 hPa NNW 13.0 mph /  20.9 km/h 13.0 mph /  20.9 km/h 60 % 0.0 in /  0 mm 197.0 W/m2 CLR
16:29 10.6 °F /  -11.9 °C 2.9 °F /  -16.2 °C 1031.7 in /  34933.4 hPa NNW 14.8 mph /  23.8 km/h 14.8 mph /  23.8 km/h 59 % 0.0 in /  0 mm 223.0 W/m2 CLR
16:34 10.6 °F /  -11.9 °C 2.4 °F /  -16.4 °C 1032.1 in /  34946.9 hPa NNW 13.0 mph /  20.9 km/h 13.0 mph /  20.9 km/h 57 % 0.0 in /  0 mm 216.0 W/m2 CLR
16:39 10.6 °F /  -11.9 °C 2.4 °F /  -16.4 °C 1031.7 in /  34933.4 hPa NNW 14.8 mph /  23.8 km/h 14.8 mph /  23.8 km/h 57 % 0.0 in /  0 mm 155.0 W/m2 CLR
16:44 10.0 °F /  -12.2 °C 2.1 °F /  -16.6 °C 1031.7 in /  34933.4 hPa NW 14.8 mph /  23.8 km/h 14.8 mph /  23.8 km/h 58 % 0.0 in /  0 mm 183.0 W/m2 CLR
16:49 10.0 °F /  -12.2 °C 2.6 °F /  -16.3 °C 1032.1 in /  34946.9 hPa NNW 11.1 mph /  17.9 km/h 11.1 mph /  17.9 km/h 60 % 0.0 in /  0 mm 74.0 W/m2 CLR
16:54 9.4 °F /  -12.6 °C 2.1 °F /  -16.6 °C 1032.1 in /  34946.9 hPa NNW 11.1 mph /  17.9 km/h 11.1 mph /  17.9 km/h 60 % 0.0 in /  0 mm 70.0 W/m2 FEW
16:59 9.4 °F /  -12.6 °C 2.1 °F /  -16.6 °C 1032.1 in /  34946.9 hPa NW 9.7 mph /  15.6 km/h 9.7 mph /  15.6 km/h 60 % 0.0 in /  0 mm 86.0 W/m2 FEW
17:04 9.4 °F /  -12.6 °C 2.3 °F /  -16.5 °C 1032.4 in /  34957.1 hPa NNW 5.6 mph /  9 km/h 5.6 mph /  9 km/h 61 % 0.0 in /  0 mm 40.0 W/m2 CLR
17:10 8.9 °F /  -12.8 °C 1.8 °F /  -16.8 °C 1032.4 in /  34957.1 hPa NW 1.9 mph /  3.1 km/h 1.9 mph /  3.1 km/h 61 % 0.0 in /  0 mm 42.0 W/m2 SCT
17:14 8.9 °F /  -12.8 °C 1.6 °F /  -16.9 °C 1032.4 in /  34957.1 hPa NW 1.9 mph /  3.1 km/h   60 % 0.0 in /  0 mm 53.0 W/m2 SCT
17:19 8.9 °F /  -12.8 °C 2.0 °F /  -16.7 °C 1032.4 in /  34957.1 hPa Calm     62 % 0.0 in /  0 mm 65.0 W/m2 SCT
17:25 8.9 °F /  -12.8 °C 2.0 °F /  -16.7 °C 1032.4 in /  34957.1 hPa Calm     62 % 0.0 in /  0 mm 56.0 W/m2 SCT
17:26 8.9 °F /  -12.8 °C 2.0 °F /  -16.7 °C 1032.4 in /  34957.1 hPa Calm     62 % 0.0 in /  0 mm 53.0 W/m2 SCT
17:36 8.9 °F /  -12.8 °C 2.0 °F /  -16.7 °C 1032.7 in /  34967.2 hPa Calm     62 % 0.0 in /  0 mm 32.0 W/m2 BKN
17:41 8.9 °F /  -12.8 °C 2.0 °F /  -16.7 °C 1032.7 in /  34967.2 hPa NW 1.9 mph /  3.1 km/h   62 % 0.0 in /  0 mm 25.0 W/m2 BKN
17:46 8.9 °F /  -12.8 °C 2.2 °F /  -16.6 °C 1032.7 in /  34967.2 hPa Calm     63 % 0.0 in /  0 mm 19.0 W/m2 BKN
17:51 8.3 °F /  -13.2 °C 2.1 °F /  -16.6 °C 1032.7 in /  34967.2 hPa Calm     65 % 0.0 in /  0 mm 14.0 W/m2 BKN
17:56 8.3 °F /  -13.2 °C 2.6 °F /  -16.3 °C 1032.7 in /  34967.2 hPa Calm     67 % 0.0 in /  0 mm 9.0 W/m2 BKN
18:01 7.8 °F /  -13.4 °C 2.2 °F /  -16.6 °C 1032.7 in /  34967.2 hPa Calm     68 % 0.0 in /  0 mm 5.0 W/m2 BKN
18:06 7.8 °F /  -13.4 °C 2.1 °F /  -16.6 °C 1032.7 in /  34967.2 hPa WNW 3.7 mph /  6 km/h 3.7 mph /  6 km/h 67 % 0.0 in /  0 mm 5.0 W/m2 OVC
18:11 7.2 °F /  -13.8 °C 1.5 °F /  -16.9 °C 1033.1 in /  34980.8 hPa Calm     67 % 0.0 in /  0 mm 0.0 W/m2 OVC
18:16 7.2 °F /  -13.8 °C 1.7 °F /  -16.8 °C 1033.1 in /  34980.8 hPa Calm     68 % 0.0 in /  0 mm 0.0 W/m2 OVC
18:21 7.2 °F /  -13.8 °C 1.9 °F /  -16.7 °C 1033.1 in /  34980.8 hPa Calm     69 % 0.0 in /  0 mm 0.0 W/m2 CLR
18:26 7.2 °F /  -13.8 °C 2.1 °F /  -16.6 °C 1033.1 in /  34980.8 hPa WNW 1.9 mph /  3.1 km/h   70 % 0.0 in /  0 mm 0.0 W/m2 CLR
18:31 7.2 °F /  -13.8 °C 2.1 °F /  -16.6 °C 1033.1 in /  34980.8 hPa Calm   0.2 mph /  0.3 km/h 70 % 0.0 in /  0 mm 0.0 W/m2 CLR
18:36 7.2 °F /  -13.8 °C 2.1 °F /  -16.6 °C 1033.4 in /  34990.9 hPa Calm     70 % 0.0 in /  0 mm 0.0 W/m2 CLR
18:41 7.2 °F /  -13.8 °C 2.7 °F /  -16.3 °C 1033.4 in /  34990.9 hPa Calm     73 % 0.0 in /  0 mm 0.0 W/m2 CLR
18:46 7.2 °F /  -13.8 °C 2.7 °F /  -16.3 °C 1033.4 in /  34990.9 hPa Calm     73 % 0.0 in /  0 mm 0.0 W/m2 CLR
18:51 7.2 °F /  -13.8 °C 2.7 °F /  -16.3 °C 1033.7 in /  35001.1 hPa Calm     73 % 0.0 in /  0 mm 0.0 W/m2 CLR
18:56 7.2 °F /  -13.8 °C 2.7 °F /  -16.3 °C 1033.7 in /  35001.1 hPa Calm     73 % 0.0 in /  0 mm 0.0 W/m2 CLR
18:58 7.2 °F /  -13.8 °C 2.7 °F /  -16.3 °C 1033.7 in /  35001.1 hPa Calm     73 % 0.0 in /  0 mm 0.0 W/m2 CLR
19:03 6.7 °F /  -14.1 °C 2.2 °F /  -16.6 °C 1033.7 in /  35001.1 hPa Calm     73 % 0.0 in /  0 mm 0.0 W/m2 CLR
19:08 6.7 °F /  -14.1 °C 2.2 °F /  -16.6 °C 1034.1 in /  35014.6 hPa Calm     73 % 0.0 in /  0 mm 0.0 W/m2 CLR
19:13 7.2 °F /  -13.8 °C 2.7 °F /  -16.3 °C 1034.4 in /  35024.8 hPa Calm     73 % 0.0 in /  0 mm 0.0 W/m2 CLR
19:18 7.2 °F /  -13.8 °C 2.5 °F /  -16.4 °C 1034.1 in /  35014.6 hPa Calm     72 % 0.0 in /  0 mm 0.0 W/m2 CLR
19:23 7.2 °F /  -13.8 °C 2.3 °F /  -16.5 °C 1034.4 in /  35024.8 hPa Calm     71 % 0.0 in /  0 mm 0.0 W/m2 CLR
19:28 7.2 °F /  -13.8 °C 2.1 °F /  -16.6 °C 1034.4 in /  35024.8 hPa Calm     70 % 0.0 in /  0 mm 0.0 W/m2 CLR
19:33 7.2 °F /  -13.8 °C 2.3 °F /  -16.5 °C 1034.4 in /  35024.8 hPa NNW 1.9 mph /  3.1 km/h 1.9 mph /  3.1 km/h 71 % 0.0 in /  0 mm 0.0 W/m2 CLR
19:38 6.7 °F /  -14.1 °C 1.6 °F /  -16.9 °C 1034.8 in /  35038.3 hPa NNW 11.1 mph /  17.9 km/h 11.1 mph /  17.9 km/h 70 % 0.0 in /  0 mm 0.0 W/m2 CLR
19:43 7.2 °F /  -13.8 °C 1.9 °F /  -16.7 °C 1034.8 in /  35038.3 hPa NNW 13.0 mph /  20.9 km/h 13.0 mph /  20.9 km/h 69 % 0.0 in /  0 mm 0.0 W/m2 CLR
19:48 7.2 °F /  -13.8 °C 1.9 °F /  -16.7 °C 1034.8 in /  35038.3 hPa NNW 19.3 mph /  31.1 km/h 19.3 mph /  31.1 km/h 69 % 0.0 in /  0 mm 0.0 W/m2 CLR
19:53 7.8 °F /  -13.4 °C 2.4 °F /  -16.4 °C 1034.8 in /  35038.3 hPa NNW 20.4 mph /  32.8 km/h 20.4 mph /  32.8 km/h 69 % 0.0 in /  0 mm 0.0 W/m2 CLR
19:58 7.8 °F /  -13.4 °C 2.4 °F /  -16.4 °C 1034.8 in /  35038.3 hPa NNW 24.1 mph /  38.8 km/h 24.1 mph /  38.8 km/h 69 % 0.0 in /  0 mm 0.0 W/m2 CLR
20:03 7.8 °F /  -13.4 °C 2.7 °F /  -16.3 °C 1034.8 in /  35038.3 hPa NNW 20.9 mph /  33.6 km/h 20.9 mph /  33.6 km/h 70 % 0.0 in /  0 mm 0.0 W/m2 CLR
20:08 7.8 °F /  -13.4 °C 2.4 °F /  -16.4 °C 1035.1 in /  35048.5 hPa NW 25.9 mph /  41.7 km/h 25.9 mph /  41.7 km/h 69 % 0.0 in /  0 mm 0.0 W/m2 CLR
20:13 7.8 °F /  -13.4 °C 2.7 °F /  -16.3 °C 1035.1 in /  35048.5 hPa NNW 24.1 mph /  38.8 km/h 24.1 mph /  38.8 km/h 70 % 0.0 in /  0 mm 0.0 W/m2 CLR
20:18 7.8 °F /  -13.4 °C 2.8 °F /  -16.2 °C 1035.1 in /  35048.5 hPa NNW 25.9 mph /  41.7 km/h 25.9 mph /  41.7 km/h 71 % 0.0 in /  0 mm 0.0 W/m2 CLR
20:23 7.8 °F /  -13.4 °C 2.8 °F /  -16.2 °C 1035.4 in /  35058.6 hPa NNW 20.4 mph /  32.8 km/h 20.4 mph /  32.8 km/h 71 % 0.0 in /  0 mm 0.0 W/m2 CLR
20:28 7.8 °F /  -13.4 °C 2.8 °F /  -16.2 °C 1035.4 in /  35058.6 hPa North 24.1 mph /  38.8 km/h 24.1 mph /  38.8 km/h 71 % 0.0 in /  0 mm 0.0 W/m2 CLR
20:29 7.2 °F /  -13.8 °C 2.3 °F /  -16.5 °C 1035.4 in /  35058.6 hPa NNW 19.3 mph /  31.1 km/h 19.3 mph /  31.1 km/h 71 % 0.0 in /  0 mm 0.0 W/m2 CLR
20:34 7.2 °F /  -13.8 °C 2.1 °F /  -16.6 °C 1035.4 in /  35058.6 hPa North 1.9 mph /  3.1 km/h 1.9 mph /  3.1 km/h 70 % 0.0 in /  0 mm 0.0 W/m2 CLR
20:39 7.8 °F /  -13.4 °C 2.8 °F /  -16.2 °C 1035.4 in /  35058.6 hPa NW 1.9 mph /  3.1 km/h 1.9 mph /  3.1 km/h 71 % 0.0 in /  0 mm 0.0 W/m2 CLR
20:44 7.8 °F /  -13.4 °C 2.8 °F /  -16.2 °C 1035.4 in /  35058.6 hPa Calm     71 % 0.0 in /  0 mm 0.0 W/m2 CLR
20:49 7.8 °F /  -13.4 °C 2.8 °F /  -16.2 °C 1035.4 in /  35058.6 hPa NNW 14.8 mph /  23.8 km/h 14.8 mph /  23.8 km/h 71 % 0.0 in /  0 mm 0.0 W/m2 CLR
20:54 7.2 °F /  -13.8 °C 2.3 °F /  -16.5 °C 1035.4 in /  35058.6 hPa NW 13.0 mph /  20.9 km/h 13.0 mph /  20.9 km/h 71 % 0.0 in /  0 mm 0.0 W/m2 CLR
20:59 7.2 °F /  -13.8 °C 2.5 °F /  -16.4 °C 1035.8 in /  35072.2 hPa WNW 1.9 mph /  3.1 km/h 1.9 mph /  3.1 km/h 72 % 0.0 in /  0 mm 0.0 W/m2 CLR
21:04 7.2 °F /  -13.8 °C 2.5 °F /  -16.4 °C 1035.8 in /  35072.2 hPa NNW 1.9 mph /  3.1 km/h   72 % 0.0 in /  0 mm 0.0 W/m2 CLR
21:09 7.2 °F /  -13.8 °C 2.7 °F /  -16.3 °C 1035.8 in /  35072.2 hPa NW 1.6 mph /  2.6 km/h 1.6 mph /  2.6 km/h 73 % 0.0 in /  0 mm 0.0 W/m2 CLR
21:14 7.2 °F /  -13.8 °C 2.7 °F /  -16.3 °C 1035.8 in /  35072.2 hPa WNW 5.6 mph /  9 km/h 5.6 mph /  9 km/h 73 % 0.0 in /  0 mm 0.0 W/m2 CLR
21:19 7.2 °F /  -13.8 °C 2.7 °F /  -16.3 °C 1035.8 in /  35072.2 hPa West 3.7 mph /  6 km/h 3.7 mph /  6 km/h 73 % 0.0 in /  0 mm 0.0 W/m2 CLR
21:24 7.2 °F /  -13.8 °C 2.7 °F /  -16.3 °C 1035.8 in /  35072.2 hPa NW 7.4 mph /  11.9 km/h 7.4 mph /  11.9 km/h 73 % 0.0 in /  0 mm 0.0 W/m2 CLR
21:29 7.2 °F /  -13.8 °C 2.7 °F /  -16.3 °C 1035.8 in /  35072.2 hPa WNW 9.7 mph /  15.6 km/h 9.7 mph /  15.6 km/h 73 % 0.0 in /  0 mm 0.0 W/m2 CLR
21:34 7.2 °F /  -13.8 °C 2.7 °F /  -16.3 °C 1036.1 in /  35082.3 hPa WNW 4.8 mph /  7.7 km/h 4.8 mph /  7.7 km/h 73 % 0.0 in /  0 mm 0.0 W/m2 CLR
21:39 7.2 °F /  -13.8 °C 2.9 °F /  -16.2 °C 1036.1 in /  35082.3 hPa NW 5.6 mph /  9 km/h 5.6 mph /  9 km/h 74 % 0.0 in /  0 mm 0.0 W/m2 CLR
21:44 7.2 °F /  -13.8 °C 2.9 °F /  -16.2 °C 1036.1 in /  35082.3 hPa WNW 1.9 mph /  3.1 km/h   74 % 0.0 in /  0 mm 0.0 W/m2 CLR
21:49 7.2 °F /  -13.8 °C 2.9 °F /  -16.2 °C 1036.1 in /  35082.3 hPa Calm     74 % 0.0 in /  0 mm 0.0 W/m2 CLR
21:54 7.2 °F /  -13.8 °C 2.9 °F /  -16.2 °C 1036.1 in /  35082.3 hPa WNW 5.6 mph /  9 km/h 5.6 mph /  9 km/h 74 % 0.0 in /  0 mm 0.0 W/m2 CLR
21:59 7.2 °F /  -13.8 °C 2.9 °F /  -16.2 °C 1036.1 in /  35082.3 hPa Calm     74 % 0.0 in /  0 mm 0.0 W/m2 CLR
22:04 7.2 °F /  -13.8 °C 3.1 °F /  -16.1 °C 1036.1 in /  35082.3 hPa Calm     75 % 0.0 in /  0 mm 0.0 W/m2 CLR
22:09 6.7 °F /  -14.1 °C 2.3 °F /  -16.5 °C 1036.5 in /  35095.9 hPa NW 3.7 mph /  6 km/h 3.7 mph /  6 km/h 74 % 0.0 in /  0 mm 0.0 W/m2 CLR
22:14 6.7 °F /  -14.1 °C 2.3 °F /  -16.5 °C 1036.5 in /  35095.9 hPa Calm     74 % 0.0 in /  0 mm 0.0 W/m2 CLR
22:19 6.7 °F /  -14.1 °C 2.6 °F /  -16.3 °C 1036.8 in /  35106 hPa Calm     75 % 0.0 in /  0 mm 0.0 W/m2 CLR
22:24 6.7 °F /  -14.1 °C 2.6 °F /  -16.3 °C 1036.8 in /  35106 hPa Calm     75 % 0.0 in /  0 mm 0.0 W/m2 CLR
22:29 6.7 °F /  -14.1 °C 2.6 °F /  -16.3 °C 1036.8 in /  35106 hPa Calm     75 % 0.0 in /  0 mm 0.0 W/m2 CLR
22:34 6.1 °F /  -14.4 °C 2.0 °F /  -16.7 °C 1036.8 in /  35106 hPa Calm     75 % 0.0 in /  0 mm 0.0 W/m2 CLR
22:39 6.1 °F /  -14.4 °C 2.2 °F /  -16.6 °C 1036.8 in /  35106 hPa Calm     76 % 0.0 in /  0 mm 0.0 W/m2 CLR
22:44 6.1 °F /  -14.4 °C 2.2 °F /  -16.6 °C 1037.1 in /  35116.2 hPa Calm     76 % 0.0 in /  0 mm 0.0 W/m2 CLR
22:49 6.1 °F /  -14.4 °C 2.4 °F /  -16.4 °C 1037.1 in /  35116.2 hPa Calm     77 % 0.0 in /  0 mm 0.0 W/m2 CLR
22:54 6.1 °F /  -14.4 °C 2.4 °F /  -16.4 °C 1037.1 in /  35116.2 hPa WNW 1.9 mph /  3.1 km/h 1.9 mph /  3.1 km/h 77 % 0.0 in /  0 mm 0.0 W/m2 CLR
22:59 6.7 °F /  -14.1 °C 3.1 °F /  -16.1 °C 1037.1 in /  35116.2 hPa Calm     78 % 0.0 in /  0 mm 0.0 W/m2 CLR
23:04 6.7 °F /  -14.1 °C 3.1 °F /  -16.1 °C 1037.1 in /  35116.2 hPa Calm     78 % 0.0 in /  0 mm 0.0 W/m2 CLR
23:09 6.7 °F /  -14.1 °C 3.1 °F /  -16.1 °C 1037.1 in /  35116.2 hPa Calm     78 % 0.0 in /  0 mm 0.0 W/m2 CLR
23:14 6.7 °F /  -14.1 °C 3.3 °F /  -15.9 °C 1037.1 in /  35116.2 hPa Calm     79 % 0.0 in /  0 mm 0.0 W/m2 CLR
23:19 6.7 °F /  -14.1 °C 3.3 °F /  -15.9 °C 1037.1 in /  35116.2 hPa WNW 1.9 mph /  3.1 km/h   79 % 0.0 in /  0 mm 0.0 W/m2 CLR
23:24 6.7 °F /  -14.1 °C 3.3 °F /  -15.9 °C 1037.1 in /  35116.2 hPa Calm     79 % 0.0 in /  0 mm 0.0 W/m2 CLR
23:29 6.7 °F /  -14.1 °C 3.3 °F /  -15.9 °C 1037.1 in /  35116.2 hPa Calm     79 % 0.0 in /  0 mm 0.0 W/m2 CLR
23:34 6.7 °F /  -14.1 °C 3.3 °F /  -15.9 °C 1037.1 in /  35116.2 hPa Calm     79 % 0.0 in /  0 mm 0.0 W/m2 CLR
23:39 6.7 °F /  -14.1 °C 3.3 °F /  -15.9 °C 1037.1 in /  35116.2 hPa Calm     79 % 0.0 in /  0 mm 0.0 W/m2 CLR
23:44 6.7 °F /  -14.1 °C 3.4 °F /  -15.9 °C 1037.1 in /  35116.2 hPa WNW 5.6 mph /  9 km/h 5.6 mph /  9 km/h 80 % 0.0 in /  0 mm 0.0 W/m2 CLR
23:49 6.1 °F /  -14.4 °C 2.7 °F /  -16.3 °C 1037.1 in /  35116.2 hPa WNW 5.6 mph /  9 km/h 5.6 mph /  9 km/h 79 % 0.0 in /  0 mm 0.0 W/m2 CLR
23:54 6.1 °F /  -14.4 °C 2.7 °F /  -16.3 °C 1037.1 in /  35116.2 hPa WNW 3.7 mph /  6 km/h 3.7 mph /  6 km/h 79 % 0.0 in /  0 mm 0.0 W/m2 CLR
23:59 6.1 °F /  -14.4 °C 2.7 °F /  -16.3 °C 1037.5 in /  35129.8 hPa Calm     79 % 0.0 in /  0 mm 0.0 W/m2 CLR
Lo Temps de Massalio
Compliments of Weather Underground - 1.25 mb